createdAt,value
2023-03-05T00:01:18.338Z,6.92
2023-03-05T00:03:46.308Z,6.92
2023-03-05T00:06:12.807Z,6.89
2023-03-05T00:08:39.629Z,6.83
2023-03-05T00:11:09.040Z,6.98
2023-03-05T00:13:35.985Z,6.93
2023-03-05T00:16:04.425Z,7.03
2023-03-05T00:18:30.882Z,6.98
2023-03-05T00:20:57.342Z,6.96
2023-03-05T00:23:23.852Z,7.12
2023-03-05T00:25:51.438Z,7.10
2023-03-05T00:28:20.701Z,6.72
2023-03-05T00:30:47.226Z,6.78
2023-03-05T00:33:14.110Z,6.62
2023-03-05T00:35:45.455Z,6.81
2023-03-05T00:38:13.084Z,6.67
2023-03-05T00:40:41.366Z,7.00
2023-03-05T00:43:08.846Z,6.80
2023-03-05T00:45:35.309Z,6.94
2023-03-05T00:48:01.741Z,6.77
2023-03-05T00:50:28.650Z,6.53
2023-03-05T00:52:55.197Z,6.39
2023-03-05T00:55:21.730Z,6.61
2023-03-05T00:57:48.131Z,6.41
2023-03-05T01:00:15.353Z,6.51
2023-03-05T01:02:42.268Z,6.74
2023-03-05T01:05:12.074Z,6.72
2023-03-05T01:07:38.861Z,6.78
2023-03-05T01:10:06.516Z,6.56
2023-03-05T01:12:32.989Z,6.31
2023-03-05T01:14:59.374Z,6.49
2023-03-05T01:17:26.970Z,6.40
2023-03-05T01:19:53.333Z,6.37
2023-03-05T01:22:19.701Z,6.50
2023-03-05T01:24:46.130Z,6.39
2023-03-05T01:27:12.497Z,6.59
2023-03-05T01:29:38.907Z,6.65
2023-03-05T01:32:05.725Z,6.57
2023-03-05T01:34:32.420Z,6.78
2023-03-05T01:36:58.769Z,6.61
2023-03-05T01:39:25.187Z,6.57
2023-03-05T01:41:51.623Z,6.48
2023-03-05T01:44:27.081Z,6.61
2023-03-05T01:46:53.454Z,6.68
2023-03-05T01:49:24.054Z,6.65
2023-03-05T01:51:53.931Z,6.71
2023-03-05T01:54:22.660Z,6.61
2023-03-05T01:56:50.278Z,6.75
2023-03-05T01:59:16.953Z,6.78
2023-03-05T02:01:46.717Z,6.81
2023-03-05T02:04:16.247Z,6.59
2023-03-05T02:06:43.605Z,6.96
2023-03-05T02:09:10.185Z,6.85
2023-03-05T02:11:36.987Z,6.88
2023-03-05T02:14:04.509Z,6.80
2023-03-05T02:16:35.892Z,7.02
2023-03-05T02:19:12.219Z,7.01
2023-03-05T02:21:47.515Z,6.96
2023-03-05T02:24:35.491Z,6.91
2023-03-05T02:27:03.207Z,6.79
2023-03-05T02:29:30.497Z,6.99
2023-03-05T02:31:56.981Z,6.70
2023-03-05T02:34:23.765Z,6.58
2023-03-05T02:36:55.424Z,6.64
2023-03-05T02:39:21.889Z,6.72
2023-03-05T02:41:48.507Z,6.80
2023-03-05T02:44:14.892Z,6.76
2023-03-05T02:46:41.276Z,6.81
2023-03-05T02:49:07.654Z,6.73
2023-03-05T02:51:34.052Z,6.66
2023-03-05T02:54:01.066Z,6.64
2023-03-05T02:56:27.577Z,6.58
2023-03-05T02:58:53.983Z,6.38
2023-03-05T03:01:20.460Z,6.63
2023-03-05T03:03:46.879Z,6.72
2023-03-05T03:06:13.300Z,6.77
2023-03-05T03:08:39.685Z,6.61
2023-03-05T03:11:08.132Z,6.62
2023-03-05T03:13:34.897Z,6.67
2023-03-05T03:16:03.452Z,6.73
2023-03-05T03:18:29.881Z,6.72
2023-03-05T03:20:56.581Z,6.58
2023-03-05T03:23:22.964Z,6.63
2023-03-05T03:25:49.373Z,6.72
2023-03-05T03:28:15.813Z,6.44
2023-03-05T03:30:42.297Z,6.62
2023-03-05T03:33:08.839Z,6.31
2023-03-05T03:35:35.256Z,6.39
2023-03-05T03:38:06.115Z,6.51
2023-03-05T03:40:32.560Z,6.37
2023-03-05T03:42:59.014Z,6.43
2023-03-05T03:45:25.653Z,6.46
2023-03-05T03:47:53.104Z,6.68
2023-03-05T03:50:21.473Z,6.74
2023-03-05T03:52:48.715Z,6.62
2023-03-05T03:55:15.151Z,6.54
2023-03-05T03:57:41.601Z,6.22
2023-03-05T04:00:08.734Z,6.08
2023-03-05T04:02:35.229Z,5.78
2023-03-05T04:05:01.804Z,5.81
2023-03-05T04:07:28.298Z,6.05
2023-03-05T04:09:54.693Z,6.27
2023-03-05T04:12:21.197Z,6.24
2023-03-05T04:14:48.685Z,6.36
2023-03-05T04:17:15.858Z,6.74
2023-03-05T04:19:42.311Z,6.67
2023-03-05T04:22:15.840Z,6.43
2023-03-05T04:24:43.186Z,6.40
2023-03-05T04:27:10.343Z,6.20
2023-03-05T04:29:37.286Z,6.43
2023-03-05T04:32:04.218Z,6.38
2023-03-05T04:34:30.707Z,6.22
2023-03-05T04:36:58.309Z,6.30
2023-03-05T04:39:25.218Z,6.31
2023-03-05T04:41:54.060Z,6.27
2023-03-05T04:44:23.589Z,6.26
2023-03-05T04:46:50.157Z,6.19
2023-03-05T04:49:16.659Z,6.13
2023-03-05T04:51:44.407Z,6.00
2023-03-05T04:54:11.347Z,6.30
2023-03-05T04:56:38.177Z,6.01
2023-03-05T04:59:04.769Z,6.23
2023-03-05T05:01:33.198Z,6.33
2023-03-05T05:03:59.688Z,6.39
2023-03-05T05:06:26.131Z,6.45
2023-03-05T05:08:52.584Z,6.34
2023-03-05T05:11:18.992Z,6.51
2023-03-05T05:13:45.400Z,6.76
2023-03-05T05:16:12.222Z,6.51
2023-03-05T05:18:38.974Z,6.64
2023-03-05T05:21:09.573Z,6.55
2023-03-05T05:23:36.253Z,6.83
2023-03-05T05:26:05.525Z,6.66
2023-03-05T05:28:32.160Z,6.56
2023-03-05T05:30:58.629Z,6.50
2023-03-05T05:33:25.429Z,6.49
2023-03-05T05:35:51.888Z,6.48
2023-03-05T05:38:18.558Z,6.49
2023-03-05T05:40:44.939Z,6.47
2023-03-05T05:43:11.305Z,5.97
2023-03-05T05:45:38.531Z,6.00
2023-03-05T05:48:05.051Z,6.14
2023-03-05T05:50:31.485Z,6.30
2023-03-05T05:52:58.013Z,6.18
2023-03-05T05:55:24.444Z,6.32
2023-03-05T05:57:51.071Z,6.23
2023-03-05T06:00:17.918Z,6.07
2023-03-05T06:02:44.472Z,5.93
2023-03-05T06:05:13.041Z,5.75
2023-03-05T06:07:40.504Z,5.64
2023-03-05T06:10:07.914Z,5.91
2023-03-05T06:12:34.526Z,5.85
2023-03-05T06:15:01.171Z,5.89
2023-03-05T06:17:30.733Z,6.14
2023-03-05T06:19:58.304Z,6.14
2023-03-05T06:22:24.810Z,6.05
2023-03-05T06:24:51.341Z,6.10
2023-03-05T06:27:20.655Z,6.14
2023-03-05T06:29:47.195Z,6.00
2023-03-05T06:32:13.650Z,6.13
2023-03-05T06:34:40.039Z,6.15
2023-03-05T06:37:06.400Z,6.38
2023-03-05T06:39:33.423Z,6.45
2023-03-05T06:42:00.337Z,6.25
2023-03-05T06:44:28.584Z,6.22
2023-03-05T06:46:55.074Z,5.98
2023-03-05T06:49:21.674Z,6.13
2023-03-05T06:51:48.107Z,6.19
2023-03-05T06:54:16.768Z,6.28
2023-03-05T06:56:45.546Z,6.30
2023-03-05T06:59:13.664Z,6.42
2023-03-05T07:01:40.439Z,6.41
2023-03-05T07:04:07.153Z,5.96
2023-03-05T07:06:35.732Z,6.08
2023-03-05T07:09:03.336Z,6.23
2023-03-05T07:11:29.922Z,6.21
2023-03-05T07:13:56.466Z,5.99
2023-03-05T07:16:25.986Z,6.11
2023-03-05T07:18:53.346Z,6.15
2023-03-05T07:21:21.985Z,6.18
2023-03-05T07:23:49.126Z,6.41
2023-03-05T07:26:16.117Z,6.53
2023-03-05T07:28:43.021Z,6.40
2023-03-05T07:31:13.893Z,6.45
2023-03-05T07:33:40.892Z,6.42
2023-03-05T07:36:08.445Z,6.59
2023-03-05T07:38:34.886Z,6.62
2023-03-05T07:41:10.091Z,6.51
2023-03-05T07:43:37.254Z,6.45
2023-03-05T07:46:05.129Z,6.65
2023-03-05T07:48:31.590Z,6.61
2023-03-05T07:51:06.499Z,6.49
2023-03-05T07:53:38.093Z,6.64
2023-03-05T07:56:04.879Z,6.54
2023-03-05T07:58:31.374Z,6.24
2023-03-05T08:00:57.758Z,6.28
2023-03-05T08:03:24.200Z,6.43
2023-03-05T08:05:50.606Z,6.53
2023-03-05T08:08:17.075Z,6.45
2023-03-05T08:10:43.468Z,6.43
2023-03-05T08:13:09.861Z,6.42
2023-03-05T08:15:39.398Z,6.85
2023-03-05T08:18:05.979Z,7.02
2023-03-05T08:20:35.259Z,7.20
2023-03-05T08:23:03.202Z,7.49
2023-03-05T08:25:29.626Z,7.67
2023-03-05T08:27:55.995Z,8.12
2023-03-05T08:30:26.949Z,8.09
2023-03-05T08:32:53.875Z,7.91
2023-03-05T08:35:21.076Z,7.85
2023-03-05T08:37:47.865Z,7.90
2023-03-05T08:40:14.497Z,7.65
2023-03-05T08:42:40.865Z,7.73
2023-03-05T08:45:09.117Z,7.53
2023-03-05T08:47:35.518Z,7.63
2023-03-05T08:50:02.046Z,8.03
2023-03-05T08:52:28.421Z,8.05
2023-03-05T08:54:54.824Z,7.93
2023-03-05T08:57:21.192Z,7.64
2023-03-05T08:59:47.703Z,8.16
2023-03-05T09:02:14.353Z,8.05
2023-03-05T09:04:40.894Z,7.59
2023-03-05T09:07:07.330Z,7.85
2023-03-05T09:09:34.130Z,7.85
2023-03-05T09:12:01.187Z,7.64
2023-03-05T09:14:28.559Z,7.25
2023-03-05T09:16:56.431Z,7.43
2023-03-05T09:19:22.837Z,7.35
2023-03-05T09:21:49.333Z,7.80
2023-03-05T09:24:15.696Z,7.52
2023-03-05T09:26:42.285Z,7.87
2023-03-05T09:29:09.357Z,8.42
2023-03-05T09:31:36.731Z,8.64
2023-03-05T09:34:03.319Z,8.44
2023-03-05T09:36:30.933Z,8.49
2023-03-05T09:38:57.704Z,8.26
2023-03-05T09:41:34.441Z,8.16
2023-03-05T09:44:22.004Z,8.39
2023-03-05T09:46:51.765Z,8.66
2023-03-05T09:49:29.268Z,8.35
2023-03-05T09:52:05.544Z,8.87
2023-03-05T09:54:54.512Z,8.83
2023-03-05T09:57:25.020Z,8.55
2023-03-05T09:59:59.095Z,8.57
2023-03-05T10:02:28.474Z,8.79
2023-03-05T10:05:00.632Z,8.31
2023-03-05T10:07:32.066Z,8.54
2023-03-05T10:10:14.205Z,8.30
2023-03-05T10:12:46.017Z,8.35
2023-03-05T10:15:38.063Z,8.16
2023-03-05T10:18:27.457Z,8.11
2023-03-05T10:20:57.802Z,8.43
2023-03-05T10:23:27.439Z,9.13
2023-03-05T10:26:49.117Z,9.63
2023-03-05T10:29:23.236Z,9.57
2023-03-05T10:32:00.356Z,9.67
2023-03-05T10:34:38.719Z,9.73
2023-03-05T10:37:47.177Z,9.26
2023-03-05T10:40:23.365Z,9.42
2023-03-05T10:42:59.287Z,9.52
2023-03-05T10:45:29.543Z,9.26
2023-03-05T10:48:00.025Z,9.15
2023-03-05T10:50:37.558Z,8.66
2023-03-05T10:53:10.835Z,8.45
2023-03-05T10:55:37.201Z,8.34
2023-03-05T10:58:11.397Z,8.38
2023-03-05T11:00:37.792Z,8.34
2023-03-05T11:03:07.244Z,7.72
2023-03-05T11:05:51.788Z,7.37
2023-03-05T11:08:30.991Z,7.18
2023-03-05T11:11:09.479Z,7.36
2023-03-05T11:13:55.003Z,7.30
2023-03-05T11:16:34.729Z,7.10
2023-03-05T11:19:16.707Z,7.23
2023-03-05T11:21:44.117Z,7.45
2023-03-05T11:24:16.055Z,7.53
2023-03-05T11:26:54.069Z,7.49
2023-03-05T11:29:26.930Z,7.96
2023-03-05T11:31:53.945Z,8.02
2023-03-05T11:34:20.292Z,7.92
2023-03-05T11:36:56.225Z,7.76
2023-03-05T11:39:25.064Z,7.63
2023-03-05T11:41:52.761Z,7.51
2023-03-05T11:44:28.394Z,7.27
2023-03-05T11:47:02.070Z,7.15
2023-03-05T11:49:31.674Z,7.23
2023-03-05T11:52:17.707Z,7.13
2023-03-05T11:54:56.842Z,7.82
2023-03-05T11:57:24.013Z,7.67
2023-03-05T11:59:52.407Z,8.34
2023-03-05T12:02:23.832Z,8.51
2023-03-05T12:04:50.519Z,8.70
2023-03-05T12:07:23.046Z,8.82
2023-03-05T12:09:51.585Z,8.84
2023-03-05T12:12:56.925Z,9.35
2023-03-05T12:15:50.047Z,9.63
2023-03-05T12:18:38.680Z,10.07
2023-03-05T12:21:34.020Z,10.42
2023-03-05T12:24:03.095Z,10.25
2023-03-05T12:27:02.284Z,10.43
2023-03-05T12:29:52.451Z,10.28
2023-03-05T12:32:25.465Z,10.67
2023-03-05T12:34:59.513Z,10.80
2023-03-05T12:37:25.809Z,10.95
2023-03-05T12:39:59.270Z,11.22
2023-03-05T12:42:28.455Z,11.23
2023-03-05T12:45:10.246Z,10.83
2023-03-05T12:47:46.641Z,10.19
2023-03-05T12:50:28.392Z,10.36
2023-03-05T12:53:04.144Z,10.13
2023-03-05T12:55:34.857Z,10.42
2023-03-05T12:58:13.642Z,10.45
2023-03-05T13:00:49.834Z,10.62
2023-03-05T13:03:23.566Z,10.72
2023-03-05T13:05:53.082Z,10.87
2023-03-05T13:08:26.489Z,10.90
2023-03-05T13:10:56.222Z,11.09
2023-03-05T13:13:24.108Z,11.29
2023-03-05T13:15:51.138Z,11.45
2023-03-05T13:18:21.539Z,10.94
2023-03-05T13:20:52.090Z,11.67
2023-03-05T13:23:26.508Z,11.57
2023-03-05T13:25:59.750Z,12.06
2023-03-05T13:28:27.469Z,11.40
2023-03-05T13:30:57.923Z,11.33
2023-03-05T13:33:30.352Z,11.32
2023-03-05T13:35:56.964Z,10.95
2023-03-05T13:38:44.102Z,10.39
2023-03-05T13:41:25.664Z,10.36
2023-03-05T13:44:00.647Z,10.35
2023-03-05T13:46:31.057Z,10.11
2023-03-05T13:48:58.746Z,10.44
2023-03-05T13:51:41.522Z,10.47
2023-03-05T13:54:10.194Z,10.18
2023-03-05T13:56:36.737Z,10.15
2023-03-05T13:59:03.089Z,10.01
2023-03-05T14:01:42.598Z,10.10
2023-03-05T14:04:20.090Z,9.22
2023-03-05T14:06:50.172Z,8.85
2023-03-05T14:09:23.044Z,8.91
2023-03-05T14:12:31.263Z,9.01
2023-03-05T14:14:59.405Z,9.31
2023-03-05T14:18:13.723Z,9.75
2023-03-05T14:20:42.163Z,9.52
2023-03-05T14:23:48.175Z,10.00
2023-03-05T14:26:30.652Z,10.08
2023-03-05T14:29:13.945Z,10.36
2023-03-05T14:31:59.379Z,10.64
2023-03-05T14:34:29.961Z,11.04
2023-03-05T14:36:59.147Z,11.02
2023-03-05T14:39:46.725Z,10.73
2023-03-05T14:42:39.205Z,10.62
2023-03-05T14:45:13.292Z,10.87
2023-03-05T14:47:39.766Z,10.79
2023-03-05T14:50:07.692Z,10.26
2023-03-05T14:52:34.465Z,10.07
2023-03-05T14:55:00.893Z,9.65
2023-03-05T14:57:28.861Z,9.08
2023-03-05T14:59:55.600Z,8.35
2023-03-05T15:02:24.685Z,7.61
2023-03-05T15:04:51.098Z,7.28
2023-03-05T15:07:31.447Z,7.26
2023-03-05T15:09:59.683Z,7.73
2023-03-05T15:12:26.418Z,7.52
2023-03-05T15:14:54.624Z,7.71
2023-03-05T15:17:24.163Z,8.14
2023-03-05T15:19:50.551Z,8.46
2023-03-05T15:22:17.538Z,8.52
2023-03-05T15:24:44.241Z,8.68
2023-03-05T15:27:10.957Z,8.55
2023-03-05T15:29:37.400Z,8.55
2023-03-05T15:32:05.493Z,8.87
2023-03-05T15:34:33.678Z,8.54
2023-03-05T15:37:01.048Z,8.62
2023-03-05T15:39:30.080Z,8.69
2023-03-05T15:41:56.551Z,8.70
2023-03-05T15:44:23.088Z,8.61
2023-03-05T15:46:49.507Z,8.56
2023-03-05T15:49:15.918Z,8.62
2023-03-05T15:51:42.308Z,8.30
2023-03-05T15:54:08.736Z,8.58
2023-03-05T15:56:35.419Z,9.41
2023-03-05T15:59:01.941Z,10.05
2023-03-05T16:01:28.386Z,9.94
2023-03-05T16:03:54.817Z,9.17
2023-03-05T16:06:23.305Z,9.11
2023-03-05T16:08:51.605Z,9.21
2023-03-05T16:11:18.562Z,9.46
2023-03-05T16:13:44.992Z,9.84
2023-03-05T16:16:11.466Z,9.40
2023-03-05T16:18:40.950Z,9.97
2023-03-05T16:21:07.345Z,9.27
2023-03-05T16:23:33.719Z,8.33
2023-03-05T16:26:00.062Z,8.35
2023-03-05T16:28:26.493Z,8.52
2023-03-05T16:30:57.064Z,8.85
2023-03-05T16:33:24.417Z,9.03
2023-03-05T16:35:57.403Z,8.72
2023-03-05T16:38:24.751Z,8.97
2023-03-05T16:41:07.373Z,8.49
2023-03-05T16:43:35.094Z,8.83
2023-03-05T16:46:02.578Z,8.82
2023-03-05T16:48:29.776Z,8.72
2023-03-05T16:50:57.761Z,8.57
2023-03-05T16:53:24.228Z,8.65
2023-03-05T16:55:50.629Z,8.31
2023-03-05T16:58:17.045Z,8.32
2023-03-05T17:00:43.458Z,8.46
2023-03-05T17:03:10.213Z,8.55
2023-03-05T17:05:37.351Z,8.64
2023-03-05T17:08:04.310Z,8.54
2023-03-05T17:10:31.214Z,8.42
2023-03-05T17:12:57.632Z,8.52
2023-03-05T17:15:24.188Z,8.69
2023-03-05T17:17:50.900Z,8.62
2023-03-05T17:20:17.716Z,8.40
2023-03-05T17:22:44.332Z,8.60
2023-03-05T17:25:10.790Z,8.59
2023-03-05T17:27:37.417Z,8.40
2023-03-05T17:30:05.040Z,8.43
2023-03-05T17:32:31.486Z,8.45
2023-03-05T17:34:57.900Z,8.47
2023-03-05T17:37:24.270Z,8.36
2023-03-05T17:39:50.675Z,8.27
2023-03-05T17:42:20.370Z,8.10
2023-03-05T17:47:13.774Z,8.40
2023-03-05T17:49:40.226Z,8.30
2023-03-05T17:52:06.589Z,8.28
2023-03-05T17:54:33.453Z,8.37
2023-03-05T17:57:00.905Z,8.13
2023-03-05T17:59:27.914Z,8.17
2023-03-05T18:01:54.400Z,8.12
2023-03-05T18:04:21.039Z,8.38
2023-03-05T18:06:47.513Z,8.41
2023-03-05T18:09:14.178Z,8.30
2023-03-05T18:11:40.872Z,8.11
2023-03-05T18:14:07.263Z,7.95
2023-03-05T18:16:34.677Z,8.23
2023-03-05T18:19:01.204Z,8.35
2023-03-05T18:21:28.135Z,8.35
2023-03-05T18:23:54.572Z,8.51
2023-03-05T18:26:20.983Z,8.24
2023-03-05T18:28:47.445Z,8.24
2023-03-05T18:31:13.990Z,8.29
2023-03-05T18:33:41.000Z,8.00
2023-03-05T18:36:09.822Z,8.18
2023-03-05T18:38:38.292Z,8.19
2023-03-05T18:41:04.891Z,8.32
2023-03-05T18:43:31.527Z,8.29
2023-03-05T18:45:58.734Z,7.98
2023-03-05T18:48:25.217Z,8.12
2023-03-05T18:50:53.240Z,8.34
2023-03-05T18:53:20.780Z,8.27
2023-03-05T18:55:47.206Z,8.14
2023-03-05T18:58:14.125Z,8.05
2023-03-05T19:00:41.137Z,8.02
2023-03-05T19:03:07.682Z,8.06
2023-03-05T19:05:34.573Z,8.14
2023-03-05T19:08:01.298Z,8.21
2023-03-05T19:10:28.094Z,8.02
2023-03-05T19:13:15.240Z,8.17
2023-03-05T19:15:42.219Z,8.33
2023-03-05T19:18:08.775Z,8.16
2023-03-05T19:20:35.281Z,7.99
2023-03-05T19:23:01.683Z,8.15
2023-03-05T19:25:28.095Z,8.12
2023-03-05T19:27:54.586Z,7.96
2023-03-05T19:30:22.489Z,8.05
2023-03-05T19:32:49.625Z,7.82
2023-03-05T19:35:16.809Z,8.19
2023-03-05T19:37:45.805Z,8.14
2023-03-05T19:40:13.930Z,8.21
2023-03-05T19:42:40.336Z,8.27
2023-03-05T19:45:07.844Z,8.33
2023-03-05T19:47:34.309Z,8.03
2023-03-05T19:50:00.928Z,7.96
2023-03-05T19:52:27.635Z,8.06
2023-03-05T19:54:54.169Z,8.01
2023-03-05T19:57:20.598Z,7.81
2023-03-05T19:59:46.996Z,8.07
2023-03-05T20:02:13.604Z,8.02
2023-03-05T20:04:40.087Z,8.01
2023-03-05T20:07:07.091Z,8.00
2023-03-05T20:09:33.501Z,8.13
2023-03-05T20:12:03.677Z,8.12
2023-03-05T20:14:30.298Z,7.95
2023-03-05T20:16:56.661Z,7.89
2023-03-05T20:19:23.125Z,7.87
2023-03-05T20:21:49.542Z,7.92
2023-03-05T20:24:17.851Z,8.04
2023-03-05T20:26:46.149Z,8.05
2023-03-05T20:29:17.315Z,8.03
2023-03-05T20:31:44.265Z,8.02
2023-03-05T20:34:12.990Z,8.09
2023-03-05T20:36:40.277Z,7.98
2023-03-05T20:39:07.008Z,7.95
2023-03-05T20:41:35.190Z,7.95
2023-03-05T20:44:03.265Z,7.79
2023-03-05T20:46:31.679Z,7.81
2023-03-05T20:49:00.468Z,7.93
2023-03-05T20:51:35.916Z,7.99
2023-03-05T20:54:09.178Z,8.13
2023-03-05T20:56:36.039Z,7.99
2023-03-05T20:59:04.960Z,7.96
2023-03-05T21:01:33.025Z,7.83
2023-03-05T21:04:00.269Z,7.87
2023-03-05T21:06:28.117Z,8.09
2023-03-05T21:08:54.676Z,8.10
2023-03-05T21:11:21.541Z,8.07
2023-03-05T21:13:48.087Z,7.84
2023-03-05T21:16:18.005Z,7.89
2023-03-05T21:18:44.490Z,7.89
2023-03-05T21:21:10.918Z,8.01
2023-03-05T21:23:37.464Z,7.99
2023-03-05T21:26:04.402Z,7.92
2023-03-05T21:28:31.731Z,7.84
2023-03-05T21:30:58.168Z,7.95
2023-03-05T21:33:29.102Z,7.78
2023-03-05T21:35:57.979Z,7.69
2023-03-05T21:38:25.546Z,7.83
2023-03-05T21:40:53.792Z,7.81
2023-03-05T21:43:22.569Z,7.87
2023-03-05T21:45:50.888Z,7.93
2023-03-05T21:48:17.561Z,7.92
2023-03-05T21:50:45.656Z,7.89
2023-03-05T21:53:13.034Z,8.01
2023-03-05T21:56:05.105Z,7.88
2023-03-05T21:58:33.912Z,7.73
2023-03-05T22:01:00.851Z,7.65
2023-03-05T22:03:27.560Z,7.76
2023-03-05T22:05:54.910Z,7.81
2023-03-05T22:08:22.336Z,7.92
2023-03-05T22:10:49.122Z,7.82
2023-03-05T22:13:17.998Z,8.12
2023-03-05T22:15:48.643Z,8.10
2023-03-05T22:18:20.352Z,7.98
2023-03-05T22:20:47.810Z,7.70
2023-03-05T22:23:15.520Z,7.84
2023-03-05T22:25:42.740Z,7.90
2023-03-05T22:28:12.766Z,7.96
2023-03-05T22:30:44.574Z,7.94
2023-03-05T22:33:12.263Z,7.80
2023-03-05T22:35:40.546Z,8.03
2023-03-05T22:38:08.060Z,7.67
2023-03-05T22:40:34.660Z,7.75
2023-03-05T22:43:01.030Z,7.63
2023-03-05T22:45:28.588Z,7.63
2023-03-05T22:47:55.268Z,7.49
2023-03-05T22:50:22.001Z,7.40
2023-03-05T22:52:48.508Z,7.32
2023-03-05T22:55:17.232Z,7.18
2023-03-05T22:57:44.719Z,7.36
2023-03-05T23:00:14.671Z,7.46
2023-03-05T23:02:42.114Z,7.30
2023-03-05T23:05:09.997Z,7.46
2023-03-05T23:07:38.575Z,7.59
2023-03-05T23:10:16.333Z,7.45
2023-03-05T23:12:46.226Z,7.30
2023-03-05T23:15:15.091Z,7.26
2023-03-05T23:17:41.695Z,7.13
2023-03-05T23:20:14.659Z,6.85
2023-03-05T23:22:41.067Z,6.58
2023-03-05T23:25:07.870Z,6.43
2023-03-05T23:27:34.578Z,6.32
2023-03-05T23:30:25.869Z,6.25
2023-03-05T23:32:53.363Z,6.03
2023-03-05T23:35:23.464Z,5.99
2023-03-05T23:37:52.060Z,5.71
2023-03-05T23:40:23.946Z,5.82
2023-03-05T23:42:50.883Z,5.76
2023-03-05T23:45:19.597Z,5.75
2023-03-05T23:47:48.161Z,5.78
2023-03-05T23:50:17.209Z,5.10
2023-03-05T23:52:44.144Z,4.90
2023-03-05T23:55:19.251Z,5.02
2023-03-05T23:57:45.830Z,4.93
